createdAt,value
2019-02-11T00:00:28.852Z,0.40
2019-02-11T00:02:57.466Z,0.40
2019-02-11T00:05:26.018Z,0.40
2019-02-11T00:07:54.583Z,0.30
2019-02-11T00:10:23.171Z,0.30
2019-02-11T00:12:51.767Z,0.30
2019-02-11T00:15:20.341Z,0.20
2019-02-11T00:17:48.889Z,0.10
2019-02-11T00:20:17.475Z,0.10
2019-02-11T00:22:46.074Z,0.13
2019-02-11T00:25:14.655Z,0.20
2019-02-11T00:27:43.209Z,0.10
2019-02-11T00:30:12.038Z,0.20
2019-02-11T00:32:40.611Z,0.10
2019-02-11T00:35:09.218Z,0.10
2019-02-11T00:37:37.786Z,0.23
2019-02-11T00:40:08.131Z,0.10
2019-02-11T00:42:36.679Z,0.27
2019-02-11T00:45:06.697Z,0.20
2019-02-11T00:47:35.258Z,0.30
2019-02-11T00:50:04.990Z,0.30
2019-02-11T00:52:33.560Z,0.20
2019-02-11T00:55:02.138Z,0.20
2019-02-11T00:57:30.819Z,0.10
2019-02-11T00:59:59.396Z,0.20
2019-02-11T01:02:27.986Z,0.10
2019-02-11T01:04:56.578Z,0.10
2019-02-11T01:07:25.145Z,0.00
2019-02-11T01:09:53.702Z,0.00
2019-02-11T01:12:22.298Z,0.00
2019-02-11T01:14:50.886Z,0.00
2019-02-11T01:17:19.499Z,0.00
2019-02-11T01:19:48.072Z,0.00
2019-02-11T01:22:16.648Z,0.00
2019-02-11T01:24:45.250Z,0.00
2019-02-11T01:27:13.925Z,0.00
2019-02-11T01:29:42.508Z,0.00
2019-02-11T01:32:11.100Z,0.00
2019-02-11T01:34:39.665Z,0.00
2019-02-11T01:37:08.252Z,0.00
2019-02-11T01:39:36.833Z,0.00
2019-02-11T01:42:05.443Z,0.00
2019-02-11T01:44:34.007Z,0.00
2019-02-11T01:47:02.598Z,0.00
2019-02-11T01:49:31.169Z,0.00
2019-02-11T01:51:59.801Z,0.00
2019-02-11T01:54:28.359Z,0.00
2019-02-11T01:56:56.969Z,0.00
2019-02-11T01:59:25.547Z,0.00
2019-02-11T02:01:54.150Z,0.10
2019-02-11T02:04:22.713Z,0.00
2019-02-11T02:06:51.299Z,0.00
2019-02-11T02:09:19.883Z,0.00
2019-02-11T02:11:48.482Z,0.10
2019-02-11T02:14:17.055Z,0.00
2019-02-11T02:16:45.647Z,0.00
2019-02-11T02:19:14.215Z,0.00
2019-02-11T02:21:42.797Z,0.00
2019-02-11T02:24:11.358Z,0.10
2019-02-11T02:26:39.962Z,0.00
2019-02-11T02:29:08.523Z,0.10
2019-02-11T02:31:37.101Z,0.00
2019-02-11T02:34:05.784Z,0.00
2019-02-11T02:36:34.369Z,0.00
2019-02-11T02:39:02.948Z,0.00
2019-02-11T02:41:31.527Z,0.00
2019-02-11T02:44:00.097Z,0.00
2019-02-11T02:46:28.679Z,0.00
2019-02-11T02:48:57.467Z,0.00
2019-02-11T02:51:26.020Z,0.00
2019-02-11T02:54:03.515Z,0.00
2019-02-11T02:56:32.095Z,0.00
2019-02-11T02:59:00.672Z,0.00
2019-02-11T03:01:29.236Z,0.00
2019-02-11T03:03:57.800Z,0.00
2019-02-11T03:06:26.387Z,0.00
2019-02-11T03:08:54.985Z,0.00
2019-02-11T03:11:23.622Z,0.10
2019-02-11T03:13:52.190Z,0.10
2019-02-11T03:16:20.789Z,0.10
2019-02-11T03:18:49.361Z,0.10
2019-02-11T03:21:17.944Z,0.17
2019-02-11T03:23:46.519Z,0.20
2019-02-11T03:26:15.098Z,0.20
2019-02-11T03:28:43.660Z,0.50
2019-02-11T03:31:12.258Z,0.60
2019-02-11T03:33:40.819Z,1.13
2019-02-11T03:36:09.404Z,0.90
2019-02-11T03:38:37.983Z,1.00
2019-02-11T03:41:06.536Z,1.90
2019-02-11T03:43:35.112Z,1.63
2019-02-11T03:46:03.669Z,1.70
2019-02-11T03:48:32.267Z,1.70
2019-02-11T03:51:00.856Z,2.10
2019-02-11T03:53:29.412Z,2.13
2019-02-11T03:55:57.970Z,2.40
2019-02-11T03:58:26.660Z,2.40
2019-02-11T04:00:55.200Z,2.57
2019-02-11T04:03:23.794Z,2.60
2019-02-11T04:05:52.497Z,2.03
2019-02-11T04:08:21.093Z,2.60
2019-02-11T04:10:49.698Z,2.40
2019-02-11T04:13:18.291Z,1.43
2019-02-11T04:15:46.849Z,2.53
2019-02-11T04:18:15.475Z,2.40
2019-02-11T04:20:44.052Z,1.97
2019-02-11T04:23:12.651Z,2.10
2019-02-11T04:25:41.189Z,1.83
2019-02-11T04:28:09.778Z,1.80
2019-02-11T04:30:38.340Z,1.60
2019-02-11T04:33:06.948Z,1.60
2019-02-11T04:35:35.515Z,1.20
2019-02-11T04:38:04.120Z,1.72
2019-02-11T04:40:32.668Z,1.40
2019-02-11T04:43:01.273Z,1.13
2019-02-11T04:45:29.828Z,1.10
2019-02-11T04:47:58.435Z,0.90
2019-02-11T04:50:27.011Z,0.80
2019-02-11T04:52:55.647Z,0.80
2019-02-11T04:55:24.196Z,0.83
2019-02-11T04:57:52.786Z,1.57
2019-02-11T05:00:21.477Z,1.10
2019-02-11T05:02:50.042Z,0.93
2019-02-11T05:05:18.610Z,0.60
2019-02-11T05:07:47.209Z,0.47
2019-02-11T05:10:16.726Z,0.77
2019-02-11T05:12:45.292Z,0.93
2019-02-11T05:15:13.841Z,0.60
2019-02-11T05:17:42.465Z,0.50
2019-02-11T05:20:12.625Z,0.73
2019-02-11T05:22:41.229Z,0.90
2019-02-11T05:25:09.859Z,0.80
2019-02-11T05:27:38.439Z,0.80
2019-02-11T05:30:11.545Z,0.87
2019-02-11T05:32:40.146Z,0.80
2019-02-11T05:35:09.150Z,0.80
2019-02-11T05:37:37.725Z,0.80
2019-02-11T05:40:09.379Z,0.70
2019-02-11T05:42:38.025Z,0.67
2019-02-11T05:45:08.021Z,0.87
2019-02-11T05:47:36.602Z,1.10
2019-02-11T05:50:08.259Z,1.20
2019-02-11T05:52:36.838Z,1.40
2019-02-11T05:55:06.862Z,2.17
2019-02-11T05:57:35.462Z,1.07
2019-02-11T06:00:05.265Z,0.97
2019-02-11T06:02:33.851Z,0.90
2019-02-11T06:05:02.428Z,0.70
2019-02-11T06:07:31.015Z,1.33
2019-02-11T06:09:59.584Z,0.90
2019-02-11T06:12:28.177Z,1.23
2019-02-11T06:15:04.083Z,1.00
2019-02-11T06:17:27.003Z,1.00
2019-02-11T06:19:55.577Z,1.20
2019-02-11T06:22:24.133Z,1.57
2019-02-11T06:24:52.719Z,1.40
2019-02-11T06:27:21.286Z,1.20
2019-02-11T06:29:50.145Z,1.03
2019-02-11T06:32:18.707Z,1.00
2019-02-11T06:34:47.304Z,0.80
2019-02-11T06:37:15.874Z,1.17
2019-02-11T06:39:44.459Z,0.73
2019-02-11T06:42:13.022Z,0.67
2019-02-11T06:44:41.634Z,0.83
2019-02-11T06:47:10.226Z,0.83
2019-02-11T06:49:38.819Z,0.70
2019-02-11T06:52:07.403Z,1.00
2019-02-11T06:54:36.028Z,1.80
2019-02-11T06:57:04.582Z,0.80
2019-02-11T06:59:33.178Z,1.13
2019-02-11T07:02:01.747Z,1.00
2019-02-11T07:04:30.341Z,1.00
2019-02-11T07:06:58.922Z,0.70
2019-02-11T07:09:27.506Z,0.73
2019-02-11T07:11:56.134Z,1.00
2019-02-11T07:14:24.728Z,0.80
2019-02-11T07:16:53.281Z,0.67
2019-02-11T07:19:21.866Z,1.00
2019-02-11T07:21:50.436Z,0.77
2019-02-11T07:24:19.035Z,0.60
2019-02-11T07:26:47.676Z,0.80
2019-02-11T07:29:16.290Z,0.53
2019-02-11T07:31:44.870Z,1.03
2019-02-11T07:34:13.467Z,0.90
2019-02-11T07:36:42.027Z,0.80
2019-02-11T07:39:10.703Z,1.20
2019-02-11T07:41:43.804Z,1.03
2019-02-11T07:44:16.969Z,0.60
2019-02-11T07:46:45.535Z,0.97
2019-02-11T07:49:14.139Z,0.40
2019-02-11T07:51:42.722Z,0.73
2019-02-11T07:54:12.295Z,0.87
2019-02-11T07:56:41.093Z,0.73
2019-02-11T07:59:09.685Z,0.40
2019-02-11T08:01:38.387Z,0.67
2019-02-11T08:04:06.982Z,0.50
2019-02-11T08:06:35.552Z,0.70
2019-02-11T08:09:06.513Z,1.03
2019-02-11T08:11:35.088Z,0.80
2019-02-11T08:14:03.684Z,1.33
2019-02-11T08:16:32.274Z,0.90
2019-02-11T08:19:00.865Z,0.53
2019-02-11T08:21:29.421Z,2.07
2019-02-11T08:23:58.004Z,0.80
2019-02-11T08:26:26.599Z,1.30
2019-02-11T08:28:55.196Z,0.83
2019-02-11T08:31:23.824Z,1.07
2019-02-11T08:33:52.385Z,1.23
2019-02-11T08:36:20.963Z,0.80
2019-02-11T08:38:49.530Z,1.50
2019-02-11T08:41:18.188Z,1.30
2019-02-11T08:43:46.762Z,1.00
2019-02-11T08:46:15.352Z,0.90
2019-02-11T08:48:43.914Z,1.13
2019-02-11T08:51:12.491Z,1.20
2019-02-11T08:53:41.083Z,1.20
2019-02-11T08:56:09.710Z,1.60
2019-02-11T08:58:38.307Z,1.77
2019-02-11T09:01:07.031Z,1.40
2019-02-11T09:03:35.610Z,1.20
2019-02-11T09:06:04.262Z,0.97
2019-02-11T09:08:32.894Z,1.20
2019-02-11T09:11:01.465Z,1.67
2019-02-11T09:13:30.023Z,2.50
2019-02-11T09:15:58.697Z,2.00
2019-02-11T09:18:27.255Z,1.20
2019-02-11T09:20:55.872Z,1.33
2019-02-11T09:23:24.447Z,1.70
2019-02-11T09:25:53.110Z,2.03
2019-02-11T09:28:21.680Z,1.67
2019-02-11T09:30:50.273Z,1.40
2019-02-11T09:33:18.942Z,1.47
2019-02-11T09:35:47.533Z,2.63
2019-02-11T09:38:16.126Z,1.50
2019-02-11T09:40:44.733Z,1.50
2019-02-11T09:43:13.300Z,1.67
2019-02-11T09:45:41.918Z,1.70
2019-02-11T09:48:10.466Z,1.90
2019-02-11T09:50:44.457Z,3.40
2019-02-11T09:53:13.892Z,1.87
2019-02-11T09:55:42.598Z,1.67
2019-02-11T09:58:11.169Z,1.83
2019-02-11T10:00:39.826Z,1.07
2019-02-11T10:03:08.391Z,1.93
2019-02-11T10:05:37.154Z,1.50
2019-02-11T10:08:05.820Z,1.50
2019-02-11T10:10:34.396Z,1.60
2019-02-11T10:13:02.959Z,1.83
2019-02-11T10:15:31.543Z,3.00
2019-02-11T10:18:00.132Z,1.30
2019-02-11T10:20:28.843Z,1.97
2019-02-11T10:22:57.459Z,2.50
2019-02-11T10:25:28.847Z,1.37
2019-02-11T10:28:06.784Z,1.53
2019-02-11T10:30:35.607Z,1.40
2019-02-11T10:33:04.178Z,2.63
2019-02-11T10:35:32.752Z,1.47
2019-02-11T10:38:01.390Z,1.87
2019-02-11T10:40:29.969Z,1.70
2019-02-11T10:42:58.534Z,1.47
2019-02-11T10:45:27.279Z,1.80
2019-02-11T10:47:55.973Z,1.83
2019-02-11T10:50:24.582Z,1.60
2019-02-11T10:52:53.142Z,1.60
2019-02-11T10:55:22.022Z,2.00
2019-02-11T10:57:50.595Z,1.87
2019-02-11T11:00:23.207Z,1.63
2019-02-11T11:02:51.848Z,1.73
2019-02-11T11:05:20.422Z,1.80
2019-02-11T11:07:49.135Z,1.93
2019-02-11T11:10:23.445Z,1.90
2019-02-11T11:12:52.182Z,1.87
2019-02-11T11:15:20.939Z,1.37
2019-02-11T11:17:49.640Z,1.10
2019-02-11T11:20:18.794Z,1.43
2019-02-11T11:22:47.614Z,1.37
2019-02-11T11:25:18.859Z,1.63
2019-02-11T11:27:47.493Z,1.30
2019-02-11T11:30:20.314Z,1.57
2019-02-11T11:32:49.021Z,1.53
2019-02-11T11:35:18.498Z,1.00
2019-02-11T11:37:47.127Z,1.40
2019-02-11T11:40:23.209Z,1.17
2019-02-11T11:42:52.191Z,1.70
2019-02-11T11:45:21.317Z,1.53
2019-02-11T11:47:49.885Z,1.57
2019-02-11T11:50:18.588Z,1.13
2019-02-11T11:52:47.158Z,1.37
2019-02-11T11:55:20.667Z,1.40
2019-02-11T11:57:49.331Z,1.40
2019-02-11T12:00:26.410Z,1.37
2019-02-11T12:03:02.895Z,1.30
2019-02-11T12:05:25.541Z,1.50
2019-02-11T12:07:54.209Z,3.40
2019-02-11T12:10:22.878Z,1.07
2019-02-11T12:12:51.548Z,2.03
2019-02-11T12:15:25.676Z,5.50
2019-02-11T12:17:54.634Z,1.43
2019-02-11T12:20:23.533Z,1.53
2019-02-11T12:22:52.105Z,1.63
2019-02-11T12:25:20.841Z,1.40
2019-02-11T12:27:49.413Z,1.73
2019-02-11T12:30:25.668Z,1.73
2019-02-11T12:32:55.721Z,1.70
2019-02-11T12:35:24.720Z,1.57
2019-02-11T12:37:53.346Z,1.60
2019-02-11T12:40:21.869Z,3.17
2019-02-11T12:42:52.487Z,1.17
2019-02-11T12:45:22.956Z,1.60
2019-02-11T12:47:51.606Z,1.30
2019-02-11T12:50:20.193Z,1.17
2019-02-11T12:52:48.861Z,1.13
2019-02-11T12:55:18.736Z,1.20
2019-02-11T12:57:47.380Z,1.57
2019-02-11T13:00:23.875Z,1.00
2019-02-11T13:02:52.557Z,7.50
2019-02-11T13:05:23.524Z,0.77
2019-02-11T13:07:51.454Z,1.43
2019-02-11T13:10:20.935Z,1.30
2019-02-11T13:12:49.641Z,0.93
2019-02-11T13:15:52.911Z,0.70
2019-02-11T13:17:49.630Z,4.97
2019-02-11T13:20:18.896Z,1.30
2019-02-11T13:22:47.869Z,1.03
2019-02-11T13:25:18.614Z,3.50
2019-02-11T13:27:47.592Z,1.10
2019-02-11T13:30:21.252Z,0.97
2019-02-11T13:32:49.926Z,1.20
2019-02-11T13:35:18.602Z,1.03
2019-02-11T13:37:47.257Z,1.30
2019-02-11T13:40:16.000Z,0.80
2019-02-11T13:42:44.988Z,0.90
2019-02-11T13:45:21.252Z,1.30
2019-02-11T13:47:56.306Z,0.90
2019-02-11T13:50:27.540Z,1.30
2019-02-11T13:52:56.724Z,1.33
2019-02-11T13:55:30.051Z,1.00
2019-02-11T13:57:55.745Z,1.03
2019-02-11T14:00:27.063Z,0.70
2019-02-11T14:03:00.647Z,1.17
2019-02-11T14:05:30.053Z,1.17
2019-02-11T14:08:00.190Z,0.97
2019-02-11T14:10:29.894Z,0.70
2019-02-11T14:12:58.836Z,0.57
2019-02-11T14:15:27.549Z,0.60
2019-02-11T14:18:10.382Z,0.90
2019-02-11T14:20:27.997Z,1.20
2019-02-11T14:22:56.601Z,1.07
2019-02-11T14:25:40.478Z,0.70
2019-02-11T14:27:55.520Z,0.83
2019-02-11T14:30:24.113Z,0.67
2019-02-11T14:32:52.678Z,0.40
2019-02-11T14:35:21.884Z,0.10
2019-02-11T14:37:50.443Z,0.60
2019-02-11T14:40:19.082Z,0.27
2019-02-11T14:42:47.859Z,0.40
2019-02-11T14:45:18.286Z,0.13
2019-02-11T14:47:46.879Z,0.50
2019-02-11T14:50:15.436Z,0.50
2019-02-11T14:52:44.031Z,0.40
2019-02-11T14:55:12.588Z,0.17
2019-02-11T14:57:41.182Z,0.10
2019-02-11T15:00:19.656Z,0.10
2019-02-11T15:02:48.383Z,0.47
2019-02-11T15:05:17.591Z,0.20
2019-02-11T15:07:46.626Z,0.50
2019-02-11T15:10:16.041Z,0.43
2019-02-11T15:12:44.679Z,0.40
2019-02-11T15:15:14.057Z,0.20
2019-02-11T15:17:44.867Z,0.33
2019-02-11T15:20:17.610Z,0.50
2019-02-11T15:22:46.210Z,0.30
2019-02-11T15:25:16.722Z,0.40
2019-02-11T15:27:45.379Z,0.20
2019-02-11T15:30:18.790Z,0.20
2019-02-11T15:32:47.390Z,0.50
2019-02-11T15:35:15.942Z,0.20
2019-02-11T15:37:44.563Z,0.40
2019-02-11T15:40:16.044Z,0.23
2019-02-11T15:42:44.710Z,0.47
2019-02-11T15:45:14.675Z,1.07
2019-02-11T15:47:43.532Z,0.30
2019-02-11T15:50:14.026Z,0.30
2019-02-11T15:52:42.620Z,0.20
2019-02-11T15:55:15.673Z,0.10
2019-02-11T15:57:44.332Z,0.20
2019-02-11T16:00:23.756Z,0.20
2019-02-11T16:02:52.423Z,0.33
2019-02-11T16:05:21.006Z,1.40
2019-02-11T16:07:49.625Z,0.87
2019-02-11T16:10:20.859Z,0.40
2019-02-11T16:12:49.449Z,0.30
2019-02-11T16:15:19.253Z,0.10
2019-02-11T16:17:48.161Z,3.50
2019-02-11T16:20:16.727Z,2.10
2019-02-11T16:22:45.345Z,0.30
2019-02-11T16:25:15.050Z,0.30
2019-02-11T16:27:43.663Z,0.37
2019-02-11T16:30:17.106Z,1.07
2019-02-11T16:32:45.693Z,0.40
2019-02-11T16:35:16.207Z,0.13
2019-02-11T16:37:44.847Z,0.20
2019-02-11T16:40:15.974Z,0.30
2019-02-11T16:42:44.530Z,0.23
2019-02-11T16:45:13.161Z,0.20
2019-02-11T16:47:41.704Z,0.20
2019-02-11T16:50:13.688Z,0.20
2019-02-11T16:52:42.242Z,0.20
2019-02-11T16:55:12.029Z,0.30
2019-02-11T16:57:40.649Z,0.10
2019-02-11T17:00:11.912Z,0.43
2019-02-11T17:02:40.502Z,2.10
2019-02-11T17:05:10.751Z,0.73
2019-02-11T17:07:42.037Z,0.27
2019-02-11T17:10:11.934Z,0.20
2019-02-11T17:12:40.656Z,0.20
2019-02-11T17:15:11.455Z,0.30
2019-02-11T17:17:40.090Z,0.10
2019-02-11T17:20:13.397Z,0.20
2019-02-11T17:22:41.924Z,0.20
2019-02-11T17:25:11.410Z,0.20
2019-02-11T17:27:39.983Z,0.43
2019-02-11T17:30:34.232Z,0.10
2019-02-11T17:33:02.792Z,0.10
2019-02-11T17:35:31.346Z,0.17
2019-02-11T17:37:59.961Z,0.10
2019-02-11T17:40:28.563Z,0.47
2019-02-11T17:42:57.190Z,0.50
2019-02-11T17:45:30.673Z,0.30
2019-02-11T17:47:59.244Z,0.20
2019-02-11T17:50:27.834Z,0.20
2019-02-11T17:53:05.460Z,0.23
2019-02-11T17:55:34.129Z,0.30
2019-02-11T17:58:02.689Z,0.10
2019-02-11T18:00:38.794Z,0.20
2019-02-11T18:03:07.387Z,0.10
2019-02-11T18:05:35.973Z,0.50
2019-02-11T18:08:04.629Z,0.30
2019-02-11T18:10:33.188Z,0.40
2019-02-11T18:13:01.767Z,0.20
2019-02-11T18:15:30.371Z,0.20
2019-02-11T18:17:58.939Z,0.20
2019-02-11T18:20:27.545Z,0.30
2019-02-11T18:22:56.119Z,0.60
2019-02-11T18:25:24.719Z,0.20
2019-02-11T18:27:53.773Z,0.20
2019-02-11T18:30:22.317Z,0.20
2019-02-11T18:32:51.265Z,0.40
2019-02-11T18:35:21.690Z,0.33
2019-02-11T18:37:50.287Z,0.30
2019-02-11T18:40:18.897Z,0.20
2019-02-11T18:42:47.529Z,0.20
2019-02-11T18:45:17.269Z,0.23
2019-02-11T18:47:46.014Z,0.27
2019-02-11T18:50:15.553Z,0.20
2019-02-11T18:52:44.209Z,0.10
2019-02-11T18:55:18.689Z,0.50
2019-02-11T18:57:47.706Z,0.53
2019-02-11T19:00:19.102Z,0.87
2019-02-11T19:02:48.197Z,0.60
2019-02-11T19:05:17.439Z,0.50
2019-02-11T19:07:46.072Z,0.67
2019-02-11T19:10:18.826Z,0.60
2019-02-11T19:12:47.590Z,0.80
2019-02-11T19:15:17.544Z,0.40
2019-02-11T19:17:46.102Z,1.13
2019-02-11T19:20:16.434Z,0.50
2019-02-11T19:22:45.335Z,0.80
2019-02-11T19:25:14.178Z,0.70
2019-02-11T19:27:42.873Z,0.80
2019-02-11T19:30:25.271Z,0.70
2019-02-11T19:32:53.826Z,0.50
2019-02-11T19:35:22.448Z,0.33
2019-02-11T19:37:51.150Z,0.63
2019-02-11T19:40:21.587Z,0.40
2019-02-11T19:42:50.216Z,0.63
2019-02-11T19:45:20.852Z,0.50
2019-02-11T19:47:50.349Z,0.60
2019-02-11T19:50:19.205Z,0.67
2019-02-11T19:52:48.216Z,0.60
2019-02-11T19:55:17.274Z,0.77
2019-02-11T19:57:45.903Z,0.60
2019-02-11T20:00:18.202Z,0.50
2019-02-11T20:02:46.985Z,1.13
2019-02-11T20:05:15.764Z,1.23
2019-02-11T20:07:44.398Z,0.97
2019-02-11T20:10:15.510Z,1.27
2019-02-11T20:12:44.089Z,0.97
2019-02-11T20:15:17.921Z,1.40
2019-02-11T20:17:46.508Z,0.73
2019-02-11T20:20:17.692Z,2.27
2019-02-11T20:22:46.279Z,2.13
2019-02-11T20:25:14.875Z,1.40
2019-02-11T20:27:43.528Z,1.90
2019-02-11T20:30:17.461Z,1.70
2019-02-11T20:32:46.123Z,1.37
2019-02-11T20:35:14.715Z,1.43
2019-02-11T20:37:43.281Z,1.50
2019-02-11T20:40:14.886Z,1.80
2019-02-11T20:42:43.481Z,1.63
2019-02-11T20:45:14.943Z,1.60
2019-02-11T20:47:43.529Z,1.33
2019-02-11T20:50:12.306Z,1.60
2019-02-11T20:52:40.838Z,1.40
2019-02-11T20:55:14.014Z,1.43
2019-02-11T20:57:43.537Z,1.17
2019-02-11T21:00:16.109Z,1.30
2019-02-11T21:02:44.745Z,1.53
2019-02-11T21:05:13.382Z,1.37
2019-02-11T21:07:41.975Z,1.57
2019-02-11T21:10:19.006Z,1.20
2019-02-11T21:12:47.643Z,1.50
2019-02-11T21:15:16.947Z,1.87
2019-02-11T21:17:45.616Z,1.27
2019-02-11T21:20:26.618Z,1.30
2019-02-11T21:22:55.183Z,2.40
2019-02-11T21:25:23.753Z,0.93
2019-02-11T21:27:52.335Z,1.73
2019-02-11T21:30:20.913Z,2.13
2019-02-11T21:32:49.513Z,2.13
2019-02-11T21:35:18.113Z,1.53
2019-02-11T21:37:46.947Z,1.90
2019-02-11T21:40:15.599Z,2.67
2019-02-11T21:42:44.650Z,2.87
2019-02-11T21:45:14.694Z,1.53
2019-02-11T21:47:43.315Z,1.67
2019-02-11T21:50:14.457Z,1.63
2019-02-11T21:52:43.061Z,1.83
2019-02-11T21:55:16.908Z,1.50
2019-02-11T21:57:45.493Z,1.50
2019-02-11T22:00:16.859Z,1.30
2019-02-11T22:02:45.461Z,1.47
2019-02-11T22:05:14.099Z,1.90
2019-02-11T22:07:42.698Z,1.63
2019-02-11T22:10:19.128Z,1.43
2019-02-11T22:12:47.727Z,1.30
2019-02-11T22:15:16.293Z,1.27
2019-02-11T22:17:44.884Z,0.87
2019-02-11T22:20:18.636Z,1.23
2019-02-11T22:22:47.245Z,1.07
2019-02-11T22:25:17.346Z,1.20
2019-02-11T22:27:45.954Z,1.00
2019-02-11T22:30:23.400Z,1.10
2019-02-11T22:32:52.025Z,1.00
2019-02-11T22:35:20.584Z,0.87
2019-02-11T22:37:50.613Z,0.90
2019-02-11T22:40:19.175Z,0.40
2019-02-11T22:42:47.774Z,0.83
2019-02-11T22:45:27.238Z,1.97
2019-02-11T22:47:55.850Z,1.27
2019-02-11T22:50:24.455Z,1.00
2019-02-11T22:52:53.020Z,1.10
2019-02-11T22:55:21.591Z,0.80
2019-02-11T22:57:50.212Z,1.13
2019-02-11T23:00:35.570Z,0.80
2019-02-11T23:03:05.184Z,1.87
2019-02-11T23:05:33.824Z,0.90
2019-02-11T23:08:02.506Z,0.90
2019-02-11T23:10:31.141Z,1.00
2019-02-11T23:12:59.734Z,1.20
2019-02-11T23:15:28.290Z,1.00
2019-02-11T23:17:56.879Z,1.23
2019-02-11T23:20:25.455Z,0.90
2019-02-11T23:22:54.050Z,1.43
2019-02-11T23:25:22.614Z,1.23
2019-02-11T23:27:51.241Z,1.00
2019-02-11T23:30:19.914Z,1.00
2019-02-11T23:32:48.468Z,0.80
2019-02-11T23:35:17.050Z,1.10
2019-02-11T23:37:45.613Z,1.20
2019-02-11T23:40:14.220Z,1.23
2019-02-11T23:42:42.780Z,1.37
2019-02-11T23:45:11.417Z,1.10
2019-02-11T23:47:39.973Z,1.00
2019-02-11T23:50:10.508Z,0.80
2019-02-11T23:52:39.093Z,0.83
2019-02-11T23:55:10.789Z,0.90
2019-02-11T23:57:39.366Z,1.17
